createdAt,value
2022-08-07T00:00:36.053Z,19.60
2022-08-07T00:03:07.336Z,19.60
2022-08-07T00:05:36.317Z,19.50
2022-08-07T00:08:04.475Z,19.50
2022-08-07T00:10:31.726Z,19.50
2022-08-07T00:13:02.035Z,19.50
2022-08-07T00:15:35.928Z,19.50
2022-08-07T00:18:05.407Z,19.40
2022-08-07T00:20:34.333Z,19.30
2022-08-07T00:23:02.215Z,19.30
2022-08-07T00:25:29.030Z,19.30
2022-08-07T00:28:07.077Z,19.30
2022-08-07T00:30:33.782Z,19.30
2022-08-07T00:33:01.038Z,19.20
2022-08-07T00:35:29.773Z,19.20
2022-08-07T00:37:57.434Z,19.20
2022-08-07T00:40:39.077Z,19.20
2022-08-07T00:43:09.746Z,19.20
2022-08-07T00:45:38.761Z,19.20
2022-08-07T00:48:09.031Z,19.20
2022-08-07T00:50:50.333Z,19.20
2022-08-07T00:53:20.326Z,19.20
2022-08-07T00:56:02.446Z,19.10
2022-08-07T00:58:31.151Z,19.10
2022-08-07T01:00:58.408Z,19.10
2022-08-07T01:03:54.682Z,19.00
2022-08-07T01:06:12.249Z,19.00
2022-08-07T01:08:42.998Z,19.00
2022-08-07T01:12:27.623Z,19.00
2022-08-07T01:13:57.552Z,19.00
2022-08-07T01:16:30.511Z,19.00
2022-08-07T01:18:57.863Z,19.00
2022-08-07T01:21:26.217Z,19.00
2022-08-07T01:23:54.449Z,19.00
2022-08-07T01:26:21.922Z,19.00
2022-08-07T01:28:53.054Z,19.00
2022-08-07T01:31:20.009Z,19.00
2022-08-07T01:33:53.813Z,19.00
2022-08-07T01:36:33.507Z,19.00
2022-08-07T01:39:00.973Z,19.00
2022-08-07T01:41:27.796Z,19.00
2022-08-07T01:43:54.482Z,18.90
2022-08-07T01:46:21.378Z,18.90
2022-08-07T01:48:48.559Z,18.90
2022-08-07T01:51:58.631Z,18.90
2022-08-07T01:54:12.031Z,18.80
2022-08-07T01:56:52.176Z,18.80
2022-08-07T01:59:42.199Z,18.80
2022-08-07T02:03:11.380Z,18.80
2022-08-07T02:05:08.068Z,18.70
2022-08-07T02:07:53.707Z,18.70
2022-08-07T02:10:23.432Z,18.70
2022-08-07T02:12:50.450Z,18.60
2022-08-07T02:15:20.640Z,18.60
2022-08-07T02:17:51.701Z,18.50
2022-08-07T02:20:19.890Z,18.40
2022-08-07T02:22:54.805Z,18.40
2022-08-07T02:25:21.876Z,18.40
2022-08-07T02:28:08.626Z,18.40
2022-08-07T02:30:38.482Z,18.40
2022-08-07T02:33:10.433Z,18.30
2022-08-07T02:36:29.206Z,18.30
2022-08-07T02:38:28.107Z,18.30
2022-08-07T02:40:59.475Z,18.20
2022-08-07T02:43:27.620Z,18.10
2022-08-07T02:45:59.145Z,18.10
2022-08-07T02:48:28.426Z,18.00
2022-08-07T02:50:55.336Z,18.00
2022-08-07T02:53:27.600Z,17.90
2022-08-07T02:56:04.077Z,17.90
2022-08-07T02:58:33.412Z,17.80
2022-08-07T03:01:00.548Z,17.80
2022-08-07T03:03:48.956Z,17.80
2022-08-07T03:06:25.813Z,17.80
2022-08-07T03:09:01.724Z,17.80
2022-08-07T03:11:28.469Z,17.70
2022-08-07T03:14:01.420Z,17.70
2022-08-07T03:16:30.397Z,17.60
2022-08-07T03:19:00.330Z,17.50
2022-08-07T03:21:27.578Z,17.50
2022-08-07T03:24:21.220Z,17.40
2022-08-07T03:26:58.610Z,17.30
2022-08-07T03:29:33.858Z,17.30
2022-08-07T03:32:01.762Z,17.30
2022-08-07T03:34:30.194Z,17.30
2022-08-07T03:36:57.410Z,17.20
2022-08-07T03:39:46.298Z,17.20
2022-08-07T03:42:11.589Z,17.10
2022-08-07T03:44:39.023Z,17.10
2022-08-07T03:47:13.559Z,17.00
2022-08-07T03:49:51.895Z,17.00
2022-08-07T03:52:27.258Z,16.90
2022-08-07T03:55:06.130Z,16.90
2022-08-07T03:58:17.978Z,16.80
2022-08-07T04:00:30.403Z,16.80
2022-08-07T04:03:03.799Z,16.80
2022-08-07T04:05:39.484Z,16.80
2022-08-07T04:08:16.217Z,16.70
2022-08-07T04:10:53.868Z,16.70
2022-08-07T04:13:27.711Z,16.60
2022-08-07T04:15:54.577Z,16.60
2022-08-07T04:18:56.559Z,16.60
2022-08-07T04:21:08.059Z,16.50
2022-08-07T04:23:43.831Z,16.50
2022-08-07T04:26:22.948Z,16.50
2022-08-07T04:28:51.922Z,16.40
2022-08-07T04:31:20.129Z,16.30
2022-08-07T04:34:06.082Z,16.30
2022-08-07T04:36:43.665Z,16.20
2022-08-07T04:39:12.222Z,16.20
2022-08-07T04:41:39.099Z,16.10
2022-08-07T04:44:13.091Z,16.10
2022-08-07T04:47:08.795Z,16.10
2022-08-07T04:50:04.090Z,16.10
2022-08-07T04:52:37.250Z,16.00
2022-08-07T04:58:09.384Z,15.90
2022-08-07T04:58:49.691Z,15.80
2022-08-07T05:01:50.411Z,15.80
2022-08-07T05:04:26.304Z,15.70
2022-08-07T05:07:20.211Z,15.70
2022-08-07T05:10:04.518Z,15.60
2022-08-07T05:13:10.056Z,15.60
2022-08-07T05:15:49.668Z,15.60
2022-08-07T05:18:29.653Z,15.50
2022-08-07T05:21:02.137Z,15.50
2022-08-07T05:23:35.524Z,15.50
2022-08-07T05:26:11.840Z,15.50
2022-08-07T05:28:40.787Z,15.40
2022-08-07T05:31:16.572Z,15.30
2022-08-07T05:33:51.243Z,15.20
2022-08-07T05:36:32.413Z,15.20
2022-08-07T05:39:09.143Z,15.30
2022-08-07T05:42:02.350Z,15.40
2022-08-07T05:44:30.811Z,15.50
2022-08-07T05:46:57.534Z,15.50
2022-08-07T05:49:27.033Z,15.60
2022-08-07T05:52:07.423Z,15.60
2022-08-07T05:54:44.389Z,15.60
2022-08-07T05:57:20.747Z,15.70
2022-08-07T05:59:57.242Z,15.70
2022-08-07T06:02:29.164Z,15.80
2022-08-07T06:04:59.440Z,15.80
2022-08-07T06:08:14.503Z,16.00
2022-08-07T06:10:15.265Z,16.10
2022-08-07T06:12:42.377Z,16.10
2022-08-07T06:15:09.882Z,16.20
2022-08-07T06:17:53.658Z,16.30
2022-08-07T06:20:25.625Z,16.40
2022-08-07T06:23:02.277Z,16.50
2022-08-07T06:25:54.805Z,16.70
2022-08-07T06:28:27.567Z,16.80
2022-08-07T06:30:55.219Z,16.90
2022-08-07T06:33:22.736Z,17.00
2022-08-07T06:36:06.399Z,17.00
2022-08-07T06:38:36.358Z,17.10
2022-08-07T06:41:03.342Z,17.20
2022-08-07T06:43:39.435Z,17.30
2022-08-07T06:46:12.137Z,17.40
2022-08-07T06:48:44.721Z,17.50
2022-08-07T06:51:16.860Z,17.60
2022-08-07T06:55:27.948Z,17.70
2022-08-07T06:56:49.425Z,17.80
2022-08-07T07:00:12.710Z,17.90
2022-08-07T07:02:48.539Z,18.10
2022-08-07T07:05:04.514Z,18.20
2022-08-07T07:07:59.337Z,18.30
2022-08-07T07:10:26.638Z,18.40
2022-08-07T07:12:54.495Z,18.50
2022-08-07T07:15:32.690Z,18.60
2022-08-07T07:18:10.387Z,18.70
2022-08-07T07:20:55.828Z,18.90
2022-08-07T07:24:06.133Z,18.90
2022-08-07T07:26:32.326Z,18.90
2022-08-07T07:29:38.581Z,19.00
2022-08-07T07:31:49.221Z,19.10
2022-08-07T07:34:22.438Z,19.20
2022-08-07T07:37:14.691Z,19.20
2022-08-07T07:39:54.532Z,19.30
2022-08-07T07:42:32.634Z,19.40
2022-08-07T07:45:01.483Z,19.50
2022-08-07T07:47:28.176Z,19.50
2022-08-07T07:50:34.370Z,19.60
2022-08-07T07:52:43.941Z,19.60
2022-08-07T07:55:24.359Z,19.70
2022-08-07T07:57:53.439Z,19.80
2022-08-07T08:00:29.904Z,19.90
2022-08-07T08:03:16.298Z,19.90
2022-08-07T08:05:54.846Z,20.10
2022-08-07T08:08:35.584Z,20.10
2022-08-07T08:11:08.544Z,20.20
2022-08-07T08:13:52.955Z,20.30
2022-08-07T08:16:31.062Z,20.40
2022-08-07T08:18:58.271Z,20.40
2022-08-07T08:21:55.455Z,20.50
2022-08-07T08:24:34.310Z,20.60
2022-08-07T08:27:00.428Z,20.60
2022-08-07T08:29:34.598Z,20.70
2022-08-07T08:32:25.411Z,20.80
2022-08-07T08:35:05.299Z,20.90
2022-08-07T08:38:00.257Z,21.00
2022-08-07T08:40:32.594Z,21.00
2022-08-07T08:43:17.776Z,21.10
2022-08-07T08:46:08.493Z,21.20
2022-08-07T08:48:47.214Z,21.30
2022-08-07T08:52:12.649Z,21.40
2022-08-07T08:54:47.422Z,21.50
2022-08-07T08:57:28.057Z,21.60
2022-08-07T09:00:03.428Z,21.70
2022-08-07T09:02:49.578Z,21.80
2022-08-07T09:05:43.526Z,21.90
2022-08-07T09:08:28.325Z,22.00
2022-08-07T09:11:14.052Z,22.10
2022-08-07T09:14:32.680Z,22.20
2022-08-07T09:17:11.092Z,22.30
2022-08-07T09:19:55.549Z,22.40
2022-08-07T09:24:31.601Z,22.50
2022-08-07T09:25:18.105Z,22.60
2022-08-07T09:28:01.033Z,22.70
2022-08-07T09:30:37.187Z,22.70
2022-08-07T09:33:53.230Z,22.90
2022-08-07T09:36:46.884Z,23.00
2022-08-07T09:39:57.756Z,23.10
2022-08-07T09:42:45.980Z,23.20
2022-08-07T09:47:23.712Z,23.30
2022-08-07T09:48:50.154Z,23.40
2022-08-07T09:52:10.241Z,23.50
2022-08-07T09:54:21.701Z,23.60
2022-08-07T09:57:15.833Z,23.70
2022-08-07T10:00:07.083Z,23.80
2022-08-07T10:04:02.878Z,23.90
2022-08-07T10:06:17.328Z,23.90
2022-08-07T10:08:59.403Z,24.10
2022-08-07T10:12:01.330Z,24.20
2022-08-07T10:14:55.163Z,24.20
2022-08-07T10:18:01.386Z,24.30
2022-08-07T10:20:30.545Z,24.40
2022-08-07T10:24:04.772Z,24.60
2022-08-07T10:26:24.731Z,24.80
2022-08-07T10:29:16.408Z,25.10
2022-08-07T10:32:00.463Z,25.20
2022-08-07T10:34:45.694Z,25.50
2022-08-07T10:37:18.478Z,25.60
2022-08-07T10:40:14.124Z,26.00
2022-08-07T10:42:53.184Z,26.90
2022-08-07T10:45:48.095Z,28.00
2022-08-07T10:48:38.299Z,29.20
2022-08-07T10:51:16.919Z,30.70
2022-08-07T10:54:03.684Z,31.70
2022-08-07T10:57:12.368Z,32.80
2022-08-07T10:59:51.453Z,33.90
2022-08-07T11:02:32.752Z,35.10
2022-08-07T11:05:10.779Z,35.90
2022-08-07T11:07:58.952Z,36.40
2022-08-07T11:10:44.028Z,37.00
2022-08-07T11:14:44.576Z,37.70
2022-08-07T11:16:34.689Z,38.30
2022-08-07T11:19:01.532Z,38.90
2022-08-07T11:21:42.724Z,39.20
2022-08-07T11:24:45.827Z,39.50
2022-08-07T11:28:01.011Z,39.70
2022-08-07T11:30:18.932Z,39.90
2022-08-07T11:32:57.014Z,40.20
2022-08-07T11:35:34.007Z,40.40
2022-08-07T11:38:28.236Z,40.60
2022-08-07T11:40:58.910Z,40.60
2022-08-07T11:43:29.664Z,40.70
2022-08-07T11:46:36.907Z,40.90
2022-08-07T11:50:30.410Z,41.20
2022-08-07T11:53:10.559Z,41.50
2022-08-07T11:56:27.220Z,41.60
2022-08-07T11:58:57.423Z,41.60
2022-08-07T12:01:59.034Z,41.70
2022-08-07T12:04:42.224Z,41.80
2022-08-07T12:08:03.682Z,41.90
2022-08-07T12:10:34.130Z,42.30
2022-08-07T12:13:11.579Z,42.40
2022-08-07T12:16:06.134Z,42.10
2022-08-07T12:18:56.326Z,42.10
2022-08-07T12:22:35.896Z,42.30
2022-08-07T12:25:07.491Z,42.30
2022-08-07T12:28:09.521Z,42.50
2022-08-07T12:30:31.628Z,42.50
2022-08-07T12:33:23.370Z,42.40
2022-08-07T12:35:57.712Z,42.50
2022-08-07T12:38:36.824Z,42.70
2022-08-07T12:41:10.133Z,42.70
2022-08-07T12:44:02.349Z,42.90
2022-08-07T12:46:41.255Z,43.10
2022-08-07T12:49:44.720Z,43.40
2022-08-07T12:52:27.054Z,43.70
2022-08-07T12:55:09.297Z,43.70
2022-08-07T12:57:59.173Z,43.70
2022-08-07T13:00:51.978Z,43.40
2022-08-07T13:03:59.178Z,43.40
2022-08-07T13:07:01.334Z,43.40
2022-08-07T13:10:19.924Z,43.70
2022-08-07T13:13:05.489Z,43.90
2022-08-07T13:15:38.310Z,44.10
2022-08-07T13:18:26.023Z,44.20
2022-08-07T13:21:00.251Z,44.30
2022-08-07T13:24:03.945Z,44.40
2022-08-07T13:26:39.649Z,44.60
2022-08-07T13:29:46.991Z,44.90
2022-08-07T13:32:32.081Z,44.80
2022-08-07T13:35:09.145Z,44.60
2022-08-07T13:37:49.679Z,44.30
2022-08-07T13:40:36.340Z,44.20
2022-08-07T13:43:12.201Z,44.20
2022-08-07T13:46:11.378Z,44.20
2022-08-07T13:48:34.615Z,44.40
2022-08-07T13:51:02.455Z,44.90
2022-08-07T13:54:16.514Z,45.10
2022-08-07T13:56:56.032Z,45.10
2022-08-07T13:59:30.941Z,44.90
2022-08-07T14:02:10.263Z,44.90
2022-08-07T14:05:04.429Z,44.80
2022-08-07T14:07:33.484Z,44.80
2022-08-07T14:10:17.807Z,45.00
2022-08-07T14:13:00.959Z,45.10
2022-08-07T14:15:35.007Z,45.00
2022-08-07T14:18:28.924Z,45.10
2022-08-07T14:22:04.115Z,45.30
2022-08-07T14:24:33.462Z,45.40
2022-08-07T14:27:22.991Z,45.60
2022-08-07T14:30:05.269Z,45.70
2022-08-07T14:32:48.579Z,46.00
2022-08-07T14:35:45.024Z,46.50
2022-08-07T14:38:24.709Z,46.90
2022-08-07T14:40:58.707Z,47.20
2022-08-07T14:43:57.611Z,47.50
2022-08-07T14:46:17.520Z,47.80
2022-08-07T14:48:44.244Z,48.30
2022-08-07T14:51:19.942Z,48.60
2022-08-07T14:54:05.579Z,48.70
2022-08-07T14:56:33.343Z,48.80
2022-08-07T14:59:13.794Z,48.90
2022-08-07T15:01:51.721Z,48.70
2022-08-07T15:04:18.478Z,48.50
2022-08-07T15:06:47.841Z,48.00
2022-08-07T15:12:09.732Z,46.60
2022-08-07T15:14:56.149Z,45.60
2022-08-07T15:17:29.113Z,44.70
2022-08-07T15:20:30.527Z,43.50
2022-08-07T15:22:55.979Z,42.60
2022-08-07T15:28:35.138Z,41.30
2022-08-07T15:31:04.875Z,40.30
2022-08-07T15:33:33.898Z,39.30
2022-08-07T15:36:05.178Z,38.40
2022-08-07T15:41:23.696Z,36.90
2022-08-07T15:44:12.330Z,36.20
2022-08-07T15:46:52.021Z,35.60
2022-08-07T15:49:19.316Z,35.10
2022-08-07T15:54:31.134Z,34.70
2022-08-07T15:57:02.380Z,34.50
2022-08-07T15:59:40.069Z,34.50
2022-08-07T16:02:25.234Z,34.50
2022-08-07T16:05:00.943Z,34.70
2022-08-07T16:08:32.106Z,35.20
2022-08-07T16:10:20.516Z,35.90
2022-08-07T16:13:17.827Z,36.40
2022-08-07T16:16:43.286Z,36.60
2022-08-07T16:19:42.989Z,37.20
2022-08-07T16:22:54.360Z,37.80
2022-08-07T16:25:54.187Z,38.20
2022-08-07T16:30:06.459Z,38.40
2022-08-07T16:31:51.378Z,38.10
2022-08-07T16:34:37.211Z,38.10
2022-08-07T16:38:03.754Z,38.20
2022-08-07T16:41:02.181Z,38.40
2022-08-07T16:44:04.056Z,38.40
2022-08-07T16:47:06.747Z,37.90
2022-08-07T16:50:35.907Z,37.20
2022-08-07T16:53:47.941Z,36.90
2022-08-07T16:56:26.106Z,36.30
2022-08-07T16:59:14.388Z,35.70
2022-08-07T17:01:53.434Z,35.00
2022-08-07T17:04:26.213Z,34.40
2022-08-07T17:07:04.170Z,33.80
2022-08-07T17:10:07.227Z,33.20
2022-08-07T17:12:52.312Z,32.70
2022-08-07T17:15:44.269Z,32.20
2022-08-07T17:18:30.801Z,31.90
2022-08-07T17:20:57.496Z,31.50
2022-08-07T17:23:31.811Z,31.30
2022-08-07T17:26:23.618Z,31.00
2022-08-07T17:30:15.276Z,30.90
2022-08-07T17:32:51.863Z,30.70
2022-08-07T17:35:51.468Z,30.50
2022-08-07T17:38:33.215Z,30.30
2022-08-07T17:42:03.009Z,30.10
2022-08-07T17:44:33.540Z,30.00
2022-08-07T17:47:16.841Z,29.90
2022-08-07T17:50:00.480Z,29.80
2022-08-07T17:52:49.293Z,29.70
2022-08-07T17:56:00.306Z,29.60
2022-08-07T17:58:30.153Z,29.50
2022-08-07T18:00:58.166Z,29.40
2022-08-07T18:04:04.605Z,29.30
2022-08-07T18:06:37.085Z,29.30
2022-08-07T18:09:16.025Z,29.20
2022-08-07T18:12:17.385Z,29.10
2022-08-07T18:15:01.446Z,29.10
2022-08-07T18:18:45.627Z,28.90
2022-08-07T18:21:12.641Z,28.80
2022-08-07T18:23:43.771Z,28.80
2022-08-07T18:26:14.895Z,28.70
2022-08-07T18:28:58.118Z,28.60
2022-08-07T18:31:58.411Z,28.50
2022-08-07T18:34:53.439Z,28.50
2022-08-07T18:38:57.384Z,28.40
2022-08-07T18:41:07.930Z,28.30
2022-08-07T18:44:03.246Z,28.20
2022-08-07T18:46:59.652Z,28.10
2022-08-07T18:50:31.818Z,28.00
2022-08-07T18:53:00.239Z,27.90
2022-08-07T18:55:57.906Z,27.90
2022-08-07T18:58:59.833Z,27.80
2022-08-07T19:02:31.893Z,27.70
2022-08-07T19:05:15.138Z,27.60
2022-08-07T19:08:06.095Z,27.50
2022-08-07T19:10:51.348Z,27.40
2022-08-07T19:13:44.796Z,27.30
2022-08-07T19:16:42.991Z,27.30
2022-08-07T19:19:47.097Z,27.20
2022-08-07T19:22:36.545Z,27.10
2022-08-07T19:25:05.582Z,27.10
2022-08-07T19:30:57.182Z,27.00
2022-08-07T19:31:04.683Z,26.90
2022-08-07T19:33:12.911Z,26.80
2022-08-07T19:35:40.283Z,26.80
2022-08-07T19:38:15.909Z,26.70
2022-08-07T19:40:50.504Z,26.70
2022-08-07T19:43:21.721Z,26.60
2022-08-07T19:46:09.762Z,26.50
2022-08-07T19:48:42.945Z,26.40
2022-08-07T19:51:20.531Z,26.30
2022-08-07T19:54:35.149Z,26.20
2022-08-07T19:58:01.399Z,26.20
2022-08-07T19:59:39.836Z,26.10
2022-08-07T20:02:15.323Z,26.10
2022-08-07T20:04:49.405Z,26.00
2022-08-07T20:07:23.873Z,25.90
2022-08-07T20:10:35.535Z,25.80
2022-08-07T20:12:52.425Z,25.80
2022-08-07T20:15:24.384Z,25.70
2022-08-07T20:18:03.380Z,25.70
2022-08-07T20:20:32.626Z,25.60
2022-08-07T20:23:23.357Z,25.50
2022-08-07T20:25:53.789Z,25.40
2022-08-07T20:28:20.562Z,25.40
2022-08-07T20:30:56.067Z,25.30
2022-08-07T20:33:37.771Z,25.20
2022-08-07T20:36:06.432Z,25.20
2022-08-07T20:38:59.629Z,25.20
2022-08-07T20:41:28.705Z,25.10
2022-08-07T20:44:01.434Z,25.00
2022-08-07T20:46:33.499Z,24.90
2022-08-07T20:49:58.400Z,24.90
2022-08-07T20:51:50.462Z,24.80
2022-08-07T20:54:30.208Z,24.70
2022-08-07T20:57:03.624Z,24.60
2022-08-07T21:00:06.581Z,24.50
2022-08-07T21:02:27.682Z,24.40
2022-08-07T21:04:55.616Z,24.30
2022-08-07T21:07:24.949Z,24.20
2022-08-07T21:10:00.208Z,24.10
2022-08-07T21:12:31.025Z,24.10
2022-08-07T21:14:59.728Z,24.10
2022-08-07T21:18:03.823Z,24.00
2022-08-07T21:20:26.677Z,24.00
2022-08-07T21:22:57.953Z,23.90
2022-08-07T21:26:08.521Z,23.70
2022-08-07T21:28:48.175Z,23.60
2022-08-07T21:32:42.250Z,23.60
2022-08-07T21:34:56.417Z,23.50
2022-08-07T21:37:57.527Z,23.50
2022-08-07T21:40:38.082Z,23.40
2022-08-07T21:43:11.021Z,23.30
2022-08-07T21:46:24.569Z,23.20
2022-08-07T21:48:57.546Z,23.10
2022-08-07T21:51:27.092Z,23.10
2022-08-07T21:54:01.219Z,23.00
2022-08-07T21:56:48.086Z,22.90
2022-08-07T21:59:26.895Z,22.90
2022-08-07T22:02:07.300Z,22.80
2022-08-07T22:04:39.190Z,22.80
2022-08-07T22:07:57.836Z,22.70
2022-08-07T22:10:24.649Z,22.60
2022-08-07T22:12:58.426Z,22.50
2022-08-07T22:16:44.358Z,22.50
2022-08-07T22:18:24.647Z,22.40
2022-08-07T22:21:14.506Z,22.30
2022-08-07T22:24:19.998Z,22.30
2022-08-07T22:27:02.001Z,22.20
2022-08-07T22:30:00.720Z,22.20
2022-08-07T22:32:46.606Z,22.10
2022-08-07T22:35:17.423Z,22.10
2022-08-07T22:38:01.873Z,22.00
2022-08-07T22:40:49.292Z,22.00
2022-08-07T22:43:47.508Z,21.90
2022-08-07T22:47:02.080Z,21.90
2022-08-07T22:49:37.899Z,21.90
2022-08-07T22:52:39.664Z,21.90
2022-08-07T22:55:31.328Z,21.80
2022-08-07T22:58:22.270Z,21.80
2022-08-07T23:00:57.812Z,21.70
2022-08-07T23:03:58.802Z,21.70
2022-08-07T23:06:51.638Z,21.60
2022-08-07T23:10:04.247Z,21.60
2022-08-07T23:12:47.675Z,21.60
2022-08-07T23:16:05.548Z,21.50
2022-08-07T23:18:52.199Z,21.50
2022-08-07T23:21:29.967Z,21.40
2022-08-07T23:24:16.943Z,21.30
2022-08-07T23:26:59.068Z,21.30
2022-08-07T23:30:38.977Z,21.30
2022-08-07T23:34:22.649Z,21.30
2022-08-07T23:36:10.689Z,21.20
2022-08-07T23:39:08.328Z,21.10
2022-08-07T23:42:05.335Z,21.10
2022-08-07T23:45:15.028Z,21.10
2022-08-07T23:48:26.834Z,21.10
2022-08-07T23:53:01.514Z,21.00
2022-08-07T23:54:36.128Z,20.90
2022-08-07T23:57:28.022Z,20.90
